createdAt,value
2024-03-09T00:01:07.945Z,17.30
2024-03-09T00:03:34.433Z,17.30
2024-03-09T00:06:00.956Z,17.20
2024-03-09T00:08:27.453Z,17.20
2024-03-09T00:10:54.090Z,17.20
2024-03-09T00:13:20.543Z,17.20
2024-03-09T00:15:47.022Z,17.20
2024-03-09T00:18:13.888Z,17.20
2024-03-09T00:20:40.426Z,17.20
2024-03-09T00:23:07.853Z,17.10
2024-03-09T00:25:34.986Z,17.10
2024-03-09T00:28:01.490Z,17.10
2024-03-09T00:30:27.936Z,17.10
2024-03-09T00:32:54.533Z,17.10
2024-03-09T00:35:21.011Z,17.10
2024-03-09T00:37:47.501Z,17.10
2024-03-09T00:40:14.099Z,17.10
2024-03-09T00:42:40.609Z,17.10
2024-03-09T00:45:07.040Z,17.10
2024-03-09T00:47:33.498Z,17.10
2024-03-09T00:49:59.959Z,17.10
2024-03-09T00:52:26.515Z,17.10
2024-03-09T00:54:53.009Z,17.10
2024-03-09T00:57:19.481Z,17.10
2024-03-09T00:59:45.930Z,17.00
2024-03-09T01:02:12.467Z,17.10
2024-03-09T01:04:39.017Z,17.00
2024-03-09T01:07:05.516Z,17.00
2024-03-09T01:09:31.967Z,17.00
2024-03-09T01:11:58.489Z,17.00
2024-03-09T01:14:25.046Z,17.00
2024-03-09T01:16:51.532Z,17.00
2024-03-09T01:19:18.055Z,17.00
2024-03-09T01:21:44.525Z,17.00
2024-03-09T01:24:10.977Z,17.00
2024-03-09T01:26:37.414Z,17.00
2024-03-09T01:29:03.971Z,17.00
2024-03-09T01:31:30.497Z,17.00
2024-03-09T01:33:56.979Z,17.00
2024-03-09T01:36:23.411Z,16.90
2024-03-09T01:38:49.880Z,16.90
2024-03-09T01:41:16.376Z,17.00
2024-03-09T01:43:42.830Z,17.00
2024-03-09T01:46:09.301Z,17.00
2024-03-09T01:48:35.745Z,16.90
2024-03-09T01:51:02.222Z,16.90
2024-03-09T01:53:28.677Z,16.90
2024-03-09T01:55:55.161Z,16.90
2024-03-09T01:58:21.744Z,16.90
2024-03-09T02:00:48.308Z,16.90
2024-03-09T02:03:14.746Z,16.90
2024-03-09T02:05:41.191Z,16.90
2024-03-09T02:08:07.675Z,16.90
2024-03-09T02:10:34.239Z,16.90
2024-03-09T02:13:00.689Z,16.90
2024-03-09T02:15:27.151Z,16.90
2024-03-09T02:17:53.601Z,16.90
2024-03-09T02:20:20.125Z,16.90
2024-03-09T02:22:46.643Z,16.90
2024-03-09T02:25:13.122Z,16.90
2024-03-09T02:27:39.555Z,16.90
2024-03-09T02:30:06.042Z,16.90
2024-03-09T02:32:32.496Z,16.80
2024-03-09T02:34:59.013Z,16.80
2024-03-09T02:37:25.528Z,16.80
2024-03-09T02:39:52.041Z,16.80
2024-03-09T02:42:18.497Z,16.80
2024-03-09T02:44:44.955Z,16.80
2024-03-09T02:47:11.562Z,16.80
2024-03-09T02:49:38.282Z,16.80
2024-03-09T02:52:04.770Z,16.80
2024-03-09T02:54:31.211Z,16.80
2024-03-09T02:56:57.758Z,16.80
2024-03-09T02:59:24.271Z,16.80
2024-03-09T03:01:50.796Z,16.80
2024-03-09T03:04:17.318Z,16.80
2024-03-09T03:06:43.775Z,16.80
2024-03-09T03:09:10.239Z,16.80
2024-03-09T03:11:36.752Z,16.70
2024-03-09T03:14:03.274Z,16.80
2024-03-09T03:16:29.856Z,16.80
2024-03-09T03:18:56.395Z,16.70
2024-03-09T03:21:22.869Z,16.70
2024-03-09T03:23:49.307Z,16.70
2024-03-09T03:26:15.836Z,16.70
2024-03-09T03:28:42.443Z,16.70
2024-03-09T03:31:08.916Z,16.70
2024-03-09T03:33:35.348Z,16.70
2024-03-09T03:36:01.840Z,16.70
2024-03-09T03:38:28.269Z,16.70
2024-03-09T03:40:54.774Z,16.70
2024-03-09T03:43:21.234Z,16.70
2024-03-09T03:45:47.674Z,16.70
2024-03-09T03:48:14.137Z,16.70
2024-03-09T03:50:40.630Z,16.70
2024-03-09T03:53:07.209Z,16.70
2024-03-09T03:55:33.862Z,16.70
2024-03-09T03:58:00.381Z,16.60
2024-03-09T04:00:26.849Z,16.60
2024-03-09T04:02:53.307Z,16.60
2024-03-09T04:05:19.815Z,16.60
2024-03-09T04:07:46.289Z,16.60
2024-03-09T04:10:12.863Z,16.60
2024-03-09T04:12:39.329Z,16.60
2024-03-09T04:15:05.771Z,16.60
2024-03-09T04:17:32.230Z,16.60
2024-03-09T04:19:58.759Z,16.60
2024-03-09T04:22:25.245Z,16.60
2024-03-09T04:24:51.684Z,16.60
2024-03-09T04:27:18.141Z,16.60
2024-03-09T04:29:44.588Z,16.60
2024-03-09T04:32:11.172Z,16.60
2024-03-09T04:34:37.746Z,16.60
2024-03-09T04:37:04.269Z,16.60
2024-03-09T04:39:30.737Z,16.60
2024-03-09T04:41:57.206Z,16.60
2024-03-09T04:44:27.863Z,16.60
2024-03-09T04:46:57.329Z,16.60
2024-03-09T04:49:23.789Z,16.60
2024-03-09T04:51:50.244Z,16.50
2024-03-09T04:54:16.694Z,16.50
2024-03-09T04:56:43.159Z,16.60
2024-03-09T04:59:09.642Z,16.50
2024-03-09T05:01:36.152Z,16.60
2024-03-09T05:04:02.607Z,16.50
2024-03-09T05:06:29.068Z,16.50
2024-03-09T05:08:55.552Z,16.50
2024-03-09T05:11:22.123Z,16.50
2024-03-09T05:13:48.690Z,16.60
2024-03-09T05:16:15.184Z,16.60
2024-03-09T05:18:41.727Z,16.50
2024-03-09T05:21:08.221Z,16.50
2024-03-09T05:23:34.706Z,16.60
2024-03-09T05:26:01.185Z,16.50
2024-03-09T05:28:27.704Z,16.50
2024-03-09T05:30:54.225Z,16.60
2024-03-09T05:33:20.772Z,16.50
2024-03-09T05:35:47.253Z,16.50
2024-03-09T05:38:14.134Z,16.50
2024-03-09T05:40:40.873Z,16.50
2024-03-09T05:43:07.329Z,16.50
2024-03-09T05:45:33.807Z,16.50
2024-03-09T05:48:00.654Z,16.50
2024-03-09T05:50:27.241Z,16.50
2024-03-09T05:52:53.865Z,16.50
2024-03-09T05:55:20.488Z,16.40
2024-03-09T05:57:47.027Z,16.40
2024-03-09T06:00:13.461Z,16.50
2024-03-09T06:02:39.902Z,16.40
2024-03-09T06:05:06.393Z,16.50
2024-03-09T06:07:32.957Z,16.40
2024-03-09T06:09:59.541Z,16.50
2024-03-09T06:12:26.140Z,16.40
2024-03-09T06:14:52.606Z,16.40
2024-03-09T06:17:19.080Z,16.40
2024-03-09T06:19:45.563Z,16.40
2024-03-09T06:22:12.051Z,16.40
2024-03-09T06:24:38.494Z,16.40
2024-03-09T06:27:04.945Z,16.50
2024-03-09T06:29:31.418Z,16.40
2024-03-09T06:31:57.893Z,16.40
2024-03-09T06:34:34.521Z,16.40
2024-03-09T06:37:01.095Z,16.40
2024-03-09T06:39:27.581Z,16.40
2024-03-09T06:41:54.003Z,16.40
2024-03-09T06:44:20.724Z,16.50
2024-03-09T06:46:47.238Z,16.50
2024-03-09T06:49:13.739Z,16.50
2024-03-09T06:51:40.182Z,16.50
2024-03-09T06:54:06.640Z,16.50
2024-03-09T06:56:33.099Z,16.50
2024-03-09T06:58:59.923Z,16.50
2024-03-09T07:01:26.509Z,16.50
2024-03-09T07:03:53.084Z,16.50
2024-03-09T07:06:19.584Z,16.60
2024-03-09T07:08:46.062Z,16.60
2024-03-09T07:11:12.596Z,16.60
2024-03-09T07:13:39.321Z,16.60
2024-03-09T07:16:05.771Z,16.60
2024-03-09T07:18:32.326Z,16.60
2024-03-09T07:20:58.830Z,16.60
2024-03-09T07:23:25.324Z,16.60
2024-03-09T07:25:51.921Z,16.60
2024-03-09T07:28:18.387Z,16.70
2024-03-09T07:30:44.830Z,16.70
2024-03-09T07:33:11.317Z,16.70
2024-03-09T07:35:37.832Z,16.70
2024-03-09T07:38:04.332Z,16.70
2024-03-09T07:40:30.822Z,16.70
2024-03-09T07:42:57.350Z,16.70
2024-03-09T07:45:23.920Z,16.70
2024-03-09T07:47:50.482Z,16.70
2024-03-09T07:50:17.131Z,16.70
2024-03-09T07:52:43.671Z,16.70
2024-03-09T07:55:10.164Z,16.80
2024-03-09T07:57:36.650Z,16.80
2024-03-09T08:00:03.092Z,16.80
2024-03-09T08:02:29.573Z,16.80
2024-03-09T08:04:56.084Z,16.80
2024-03-09T08:07:22.556Z,16.80
2024-03-09T08:09:49.000Z,16.90
2024-03-09T08:12:15.482Z,16.90
2024-03-09T08:14:41.980Z,16.90
2024-03-09T08:17:08.600Z,16.90
2024-03-09T08:19:35.131Z,16.90
2024-03-09T08:22:01.648Z,17.00
2024-03-09T08:24:28.113Z,17.00
2024-03-09T08:26:54.566Z,17.00
2024-03-09T08:29:21.144Z,17.00
2024-03-09T08:31:47.646Z,17.00
2024-03-09T08:34:14.144Z,17.00
2024-03-09T08:36:40.684Z,17.00
2024-03-09T08:39:07.159Z,17.10
2024-03-09T08:41:33.634Z,17.10
2024-03-09T08:44:00.141Z,17.10
2024-03-09T08:46:26.631Z,17.10
2024-03-09T08:48:53.083Z,17.20
2024-03-09T08:51:19.535Z,17.20
2024-03-09T08:53:46.000Z,17.20
2024-03-09T08:56:12.616Z,17.20
2024-03-09T08:58:39.134Z,17.20
2024-03-09T09:01:05.717Z,17.20
2024-03-09T09:03:32.198Z,17.30
2024-03-09T09:05:58.668Z,17.30
2024-03-09T09:08:25.284Z,17.30
2024-03-09T09:10:51.905Z,17.30
2024-03-09T09:13:18.409Z,17.30
2024-03-09T09:15:44.870Z,17.30
2024-03-09T09:18:11.435Z,17.30
2024-03-09T09:20:37.927Z,17.30
2024-03-09T09:23:04.513Z,17.40
2024-03-09T09:25:32.950Z,17.40
2024-03-09T09:27:59.778Z,17.40
2024-03-09T09:30:26.254Z,17.50
2024-03-09T09:32:52.783Z,17.50
2024-03-09T09:35:19.318Z,17.50
2024-03-09T09:37:45.784Z,17.60
2024-03-09T09:40:12.277Z,17.50
2024-03-09T09:42:38.743Z,17.50
2024-03-09T09:45:05.245Z,17.50
2024-03-09T09:47:32.104Z,17.50
2024-03-09T09:49:58.848Z,17.60
2024-03-09T09:52:25.510Z,17.60
2024-03-09T09:54:52.017Z,17.50
2024-03-09T09:57:18.508Z,17.50
2024-03-09T09:59:45.319Z,17.50
2024-03-09T10:02:11.831Z,17.60
2024-03-09T10:04:38.307Z,17.60
2024-03-09T10:07:04.791Z,17.60
2024-03-09T10:09:32.486Z,17.60
2024-03-09T10:12:00.764Z,17.60
2024-03-09T10:14:27.330Z,17.60
2024-03-09T10:16:53.817Z,17.60
2024-03-09T10:19:20.358Z,17.70
2024-03-09T10:21:46.805Z,17.70
2024-03-09T10:24:13.337Z,17.70
2024-03-09T10:26:39.803Z,17.70
2024-03-09T10:29:06.418Z,17.80
2024-03-09T10:31:33.000Z,17.80
2024-03-09T10:33:59.509Z,17.80
2024-03-09T10:36:26.035Z,17.80
2024-03-09T10:38:52.571Z,17.80
2024-03-09T10:41:19.124Z,17.80
2024-03-09T10:43:45.807Z,17.80
2024-03-09T10:46:12.296Z,17.80
2024-03-09T10:48:38.822Z,17.80
2024-03-09T10:51:05.285Z,17.80
2024-03-09T10:53:31.734Z,17.80
2024-03-09T10:55:58.289Z,17.80
2024-03-09T10:58:24.769Z,17.80
2024-03-09T11:00:51.442Z,17.80
2024-03-09T11:03:19.148Z,17.80
2024-03-09T11:05:46.863Z,17.80
2024-03-09T11:08:17.676Z,17.80
2024-03-09T11:10:44.218Z,17.80
2024-03-09T11:13:10.698Z,17.80
2024-03-09T11:15:37.162Z,17.80
2024-03-09T11:18:03.682Z,17.80
2024-03-09T11:20:30.263Z,17.80
2024-03-09T11:22:56.998Z,17.80
2024-03-09T11:25:23.576Z,17.80
2024-03-09T11:27:52.002Z,17.80
2024-03-09T11:30:18.649Z,17.80
2024-03-09T11:32:45.135Z,17.80
2024-03-09T11:35:11.623Z,17.80
2024-03-09T11:37:38.148Z,17.80
2024-03-09T11:40:04.676Z,17.80
2024-03-09T11:42:31.132Z,17.80
2024-03-09T11:44:57.571Z,17.80
2024-03-09T11:47:24.173Z,17.80
2024-03-09T11:49:50.735Z,17.80
2024-03-09T11:52:17.278Z,17.90
2024-03-09T11:54:43.730Z,17.80
2024-03-09T11:57:10.165Z,17.80
2024-03-09T11:59:36.664Z,17.80
2024-03-09T12:02:03.379Z,17.90
2024-03-09T12:04:29.995Z,17.90
2024-03-09T12:06:56.456Z,17.90
2024-03-09T12:09:22.976Z,17.90
2024-03-09T12:11:49.555Z,18.00
2024-03-09T12:14:16.144Z,17.90
2024-03-09T12:16:42.682Z,18.00
2024-03-09T12:19:09.180Z,18.00
2024-03-09T12:21:35.676Z,18.00
2024-03-09T12:24:02.160Z,18.00
2024-03-09T12:26:32.066Z,18.00
2024-03-09T12:29:00.586Z,18.00
2024-03-09T12:31:27.136Z,18.00
2024-03-09T12:33:53.573Z,18.00
2024-03-09T12:36:20.058Z,18.00
2024-03-09T12:38:46.511Z,18.00
2024-03-09T12:41:13.035Z,18.00
2024-03-09T12:43:39.612Z,18.00
2024-03-09T12:46:06.143Z,18.00
2024-03-09T12:48:32.596Z,18.00
2024-03-09T12:50:59.044Z,18.00
2024-03-09T12:53:25.530Z,18.00
2024-03-09T12:55:52.060Z,18.00
2024-03-09T12:58:18.560Z,18.00
2024-03-09T13:00:45.098Z,18.00
2024-03-09T13:03:11.549Z,18.00
2024-03-09T13:05:38.017Z,18.00
2024-03-09T13:08:04.505Z,18.00
2024-03-09T13:10:31.016Z,18.00
2024-03-09T13:12:57.449Z,18.10
2024-03-09T13:15:23.911Z,18.10
2024-03-09T13:17:50.426Z,18.20
2024-03-09T13:20:17.006Z,18.20
2024-03-09T13:22:43.592Z,18.20
2024-03-09T13:25:10.077Z,18.30
2024-03-09T13:27:36.856Z,18.20
2024-03-09T13:30:03.337Z,18.20
2024-03-09T13:32:29.861Z,18.20
2024-03-09T13:34:56.382Z,18.20
2024-03-09T13:37:22.941Z,18.20
2024-03-09T13:39:49.402Z,18.20
2024-03-09T13:42:15.930Z,18.20
2024-03-09T13:44:42.418Z,18.20
2024-03-09T13:47:08.945Z,18.20
2024-03-09T13:49:35.586Z,18.10
2024-03-09T13:52:02.249Z,18.10
2024-03-09T13:54:28.743Z,18.20
2024-03-09T13:56:55.205Z,18.10
2024-03-09T13:59:21.759Z,18.10
2024-03-09T14:01:48.245Z,18.10
2024-03-09T14:04:15.797Z,18.10
2024-03-09T14:06:56.624Z,18.00
2024-03-09T14:09:29.164Z,18.10
2024-03-09T14:11:55.723Z,18.10
2024-03-09T14:14:22.328Z,18.10
2024-03-09T14:16:49.021Z,18.10
2024-03-09T14:19:15.562Z,18.10
2024-03-09T14:21:42.063Z,18.10
2024-03-09T14:24:08.594Z,18.10
2024-03-09T14:26:35.031Z,18.10
2024-03-09T14:29:01.575Z,18.10
2024-03-09T14:31:28.107Z,18.10
2024-03-09T14:33:54.588Z,18.10
2024-03-09T14:36:22.158Z,18.10
2024-03-09T14:38:48.612Z,18.10
2024-03-09T14:41:17.298Z,18.10
2024-03-09T14:43:45.626Z,18.10
2024-03-09T14:46:12.123Z,18.10
2024-03-09T14:48:38.603Z,18.10
2024-03-09T14:51:05.076Z,18.10
2024-03-09T14:53:31.538Z,18.10
2024-03-09T14:55:58.066Z,18.10
2024-03-09T14:58:24.646Z,18.10
2024-03-09T15:00:51.154Z,18.10
2024-03-09T15:03:17.612Z,18.10
2024-03-09T15:05:44.064Z,18.10
2024-03-09T15:08:10.621Z,18.10
2024-03-09T15:10:37.173Z,18.00
2024-03-09T15:13:03.657Z,18.10
2024-03-09T15:15:30.102Z,18.00
2024-03-09T15:17:56.587Z,18.00
2024-03-09T15:20:26.121Z,18.00
2024-03-09T15:22:57.181Z,18.00
2024-03-09T15:25:23.676Z,18.00
2024-03-09T15:27:50.150Z,18.00
2024-03-09T15:30:16.652Z,18.00
2024-03-09T15:32:43.133Z,17.90
2024-03-09T15:35:09.716Z,17.90
2024-03-09T15:37:36.232Z,17.90
2024-03-09T15:40:02.705Z,17.90
2024-03-09T15:42:29.268Z,17.90
2024-03-09T15:44:55.871Z,17.90
2024-03-09T15:47:22.363Z,17.90
2024-03-09T15:49:48.887Z,17.90
2024-03-09T15:52:15.404Z,17.90
2024-03-09T15:54:41.878Z,17.90
2024-03-09T15:57:08.378Z,17.90
2024-03-09T15:59:34.939Z,17.90
2024-03-09T16:02:01.652Z,17.90
2024-03-09T16:04:28.155Z,17.90
2024-03-09T16:06:54.664Z,17.90
2024-03-09T16:09:21.130Z,17.90
2024-03-09T16:11:47.698Z,17.90
2024-03-09T16:14:14.786Z,17.90
2024-03-09T16:16:41.500Z,17.90
2024-03-09T16:19:08.060Z,17.90
2024-03-09T16:21:34.580Z,17.90
2024-03-09T16:24:01.122Z,17.90
2024-03-09T16:26:27.673Z,17.90
2024-03-09T16:28:54.250Z,17.90
2024-03-09T16:31:20.810Z,17.90
2024-03-09T16:33:47.362Z,17.90
2024-03-09T16:36:13.851Z,17.90
2024-03-09T16:38:40.357Z,17.90
2024-03-09T16:41:06.966Z,17.80
2024-03-09T16:43:36.648Z,17.90
2024-03-09T16:46:04.759Z,17.80
2024-03-09T16:48:31.257Z,17.90
2024-03-09T16:50:57.797Z,17.80
2024-03-09T16:53:24.479Z,17.80
2024-03-09T16:55:51.134Z,17.80
2024-03-09T16:58:17.767Z,17.80
2024-03-09T17:00:44.246Z,17.70
2024-03-09T17:03:10.702Z,17.70
2024-03-09T17:05:37.186Z,17.70
2024-03-09T17:08:03.798Z,17.70
2024-03-09T17:10:30.321Z,17.70
2024-03-09T17:12:56.780Z,17.70
2024-03-09T17:15:23.303Z,17.70
2024-03-09T17:17:49.767Z,17.70
2024-03-09T17:20:16.318Z,17.70
2024-03-09T17:22:42.833Z,17.70
2024-03-09T17:25:11.425Z,17.70
2024-03-09T17:27:37.921Z,17.70
2024-03-09T17:30:04.378Z,17.70
2024-03-09T17:32:30.950Z,17.70
2024-03-09T17:34:57.473Z,17.70
2024-03-09T17:37:26.825Z,17.70
2024-03-09T17:39:53.362Z,17.70
2024-03-09T17:42:19.808Z,17.70
2024-03-09T17:44:46.256Z,17.70
2024-03-09T17:47:13.010Z,17.60
2024-03-09T17:49:41.344Z,17.70
2024-03-09T17:52:07.843Z,17.70
2024-03-09T17:54:34.533Z,17.60
2024-03-09T17:57:01.264Z,17.70
2024-03-09T17:59:27.771Z,17.70
2024-03-09T18:01:54.419Z,17.60
2024-03-09T18:04:20.932Z,17.60
2024-03-09T18:06:47.439Z,17.60
2024-03-09T18:09:16.119Z,17.60
2024-03-09T18:11:42.713Z,17.70
2024-03-09T18:14:09.315Z,17.70
2024-03-09T18:16:35.839Z,17.70
2024-03-09T18:19:02.361Z,17.60
2024-03-09T18:21:28.821Z,17.70
2024-03-09T18:23:55.317Z,17.60
2024-03-09T18:26:21.851Z,17.60
2024-03-09T18:28:48.390Z,17.60
2024-03-09T18:31:14.859Z,17.60
2024-03-09T18:33:41.332Z,17.60
2024-03-09T18:36:07.926Z,17.60
2024-03-09T18:38:34.499Z,17.60
2024-03-09T18:41:01.840Z,17.60
2024-03-09T18:43:29.414Z,17.60
2024-03-09T18:45:55.895Z,17.60
2024-03-09T18:48:24.844Z,17.60
2024-03-09T18:50:51.630Z,17.60
2024-03-09T18:53:18.187Z,17.60
2024-03-09T18:55:44.759Z,17.60
2024-03-09T18:58:11.335Z,17.60
2024-03-09T19:00:37.820Z,17.60
2024-03-09T19:03:04.378Z,17.60
2024-03-09T19:05:30.887Z,17.60
2024-03-09T19:07:57.600Z,17.60
2024-03-09T19:10:24.116Z,17.60
2024-03-09T19:12:50.642Z,17.60
2024-03-09T19:15:17.132Z,17.60
2024-03-09T19:17:43.625Z,17.60
2024-03-09T19:20:10.163Z,17.60
2024-03-09T19:22:36.613Z,17.60
2024-03-09T19:25:03.065Z,17.60
2024-03-09T19:27:29.521Z,17.60
2024-03-09T19:29:56.002Z,17.60
2024-03-09T19:32:22.520Z,17.60
2024-03-09T19:34:49.019Z,17.60
2024-03-09T19:37:15.489Z,17.60
2024-03-09T19:39:41.980Z,17.60
2024-03-09T19:42:08.417Z,17.60
2024-03-09T19:44:34.879Z,17.60
2024-03-09T19:47:01.362Z,17.60
2024-03-09T19:49:27.845Z,17.60
2024-03-09T19:51:54.363Z,17.60
2024-03-09T19:54:20.823Z,17.60
2024-03-09T19:56:47.287Z,17.60
2024-03-09T19:59:13.777Z,17.60
2024-03-09T20:01:40.357Z,17.60
2024-03-09T20:04:06.844Z,17.60
2024-03-09T20:06:33.301Z,17.50
2024-03-09T20:08:59.768Z,17.50
2024-03-09T20:11:26.359Z,17.50
2024-03-09T20:13:52.883Z,17.50
2024-03-09T20:16:19.328Z,17.50
2024-03-09T20:18:45.780Z,17.50
2024-03-09T20:21:12.262Z,17.50
2024-03-09T20:23:38.749Z,17.50
2024-03-09T20:26:05.342Z,17.50
2024-03-09T20:28:31.873Z,17.50
2024-03-09T20:30:58.360Z,17.50
2024-03-09T20:33:24.884Z,17.50
2024-03-09T20:35:51.423Z,17.50
2024-03-09T20:38:18.025Z,17.50
2024-03-09T20:40:44.538Z,17.40
2024-03-09T20:43:11.027Z,17.40
2024-03-09T20:45:37.545Z,17.40
2024-03-09T20:48:04.103Z,17.40
2024-03-09T20:50:30.627Z,17.40
2024-03-09T20:52:57.209Z,17.40
2024-03-09T20:55:23.696Z,17.40
2024-03-09T20:57:50.192Z,17.40
2024-03-09T21:00:16.703Z,17.40
2024-03-09T21:02:43.245Z,17.40
2024-03-09T21:05:09.827Z,17.40
2024-03-09T21:07:36.453Z,17.40
2024-03-09T21:10:02.999Z,17.40
2024-03-09T21:12:29.488Z,17.40
2024-03-09T21:14:55.949Z,17.40
2024-03-09T21:17:24.807Z,17.40
2024-03-09T21:19:51.684Z,17.40
2024-03-09T21:22:18.190Z,17.30
2024-03-09T21:24:44.673Z,17.40
2024-03-09T21:27:11.237Z,17.40
2024-03-09T21:29:37.670Z,17.40
2024-03-09T21:32:04.211Z,17.40
2024-03-09T21:34:30.802Z,17.30
2024-03-09T21:36:57.288Z,17.30
2024-03-09T21:39:23.788Z,17.30
2024-03-09T21:41:50.317Z,17.30
2024-03-09T21:44:16.782Z,17.30
2024-03-09T21:46:43.312Z,17.40
2024-03-09T21:49:09.803Z,17.30
2024-03-09T21:51:36.290Z,17.30
2024-03-09T21:54:02.749Z,17.30
2024-03-09T21:56:29.236Z,17.40
2024-03-09T21:58:55.726Z,17.40
2024-03-09T22:01:22.219Z,17.40
2024-03-09T22:03:48.671Z,17.40
2024-03-09T22:06:15.138Z,17.30
2024-03-09T22:08:41.734Z,17.40
2024-03-09T22:11:08.254Z,17.30
2024-03-09T22:13:35.002Z,17.30
2024-03-09T22:16:01.500Z,17.40
2024-03-09T22:18:27.938Z,17.40
2024-03-09T22:20:54.443Z,17.40
2024-03-09T22:23:21.063Z,17.40
2024-03-09T22:25:47.553Z,17.40
2024-03-09T22:28:14.056Z,17.40
2024-03-09T22:30:40.526Z,17.40
2024-03-09T22:33:07.111Z,17.40
2024-03-09T22:35:33.701Z,17.30
2024-03-09T22:38:00.298Z,17.40
2024-03-09T22:40:26.806Z,17.30
2024-03-09T22:42:53.275Z,17.30
2024-03-09T22:45:19.725Z,17.30
2024-03-09T22:47:46.912Z,17.30
2024-03-09T22:50:13.875Z,17.30
2024-03-09T22:52:40.392Z,17.30
2024-03-09T22:55:06.866Z,17.30
2024-03-09T22:57:33.330Z,17.30
2024-03-09T22:59:59.780Z,17.30
2024-03-09T23:02:26.319Z,17.30
2024-03-09T23:04:53.051Z,17.30
2024-03-09T23:07:19.671Z,17.30
2024-03-09T23:09:46.213Z,17.30
2024-03-09T23:12:12.859Z,17.30
2024-03-09T23:14:39.472Z,17.30
2024-03-09T23:17:06.098Z,17.20
2024-03-09T23:19:32.597Z,17.20
2024-03-09T23:21:59.168Z,17.20
2024-03-09T23:24:25.663Z,17.20
2024-03-09T23:26:52.126Z,17.20
2024-03-09T23:29:18.687Z,17.20
2024-03-09T23:31:45.318Z,17.20
2024-03-09T23:34:11.785Z,17.20
2024-03-09T23:36:38.261Z,17.20
2024-03-09T23:39:05.718Z,17.20
2024-03-09T23:41:32.238Z,17.20
2024-03-09T23:43:58.722Z,17.20
2024-03-09T23:46:25.464Z,17.20
2024-03-09T23:48:51.926Z,17.20
2024-03-09T23:51:18.377Z,17.10
2024-03-09T23:53:44.906Z,17.10
2024-03-09T23:56:11.396Z,17.10
2024-03-09T23:58:37.870Z,17.10
